Time;durP1;ratioP1;P1;durP2;ratioP2;P2;SDS_P1;SDS_P2;PMS_P1;PMS_P2;Temp;Humidity;BMP_temperature;BMP_pressure;BME280_temperature;BME280_humidity;BME280_pressure;Samples;Min_cycle;Max_cycle;Signal;HPM_P1;HPM_P2
2024/01/29 00:00:45;;;;;;;14.47;13.87;;;2.90;99.90;;;;;;5069862;28;20410;-61
2024/01/29 00:03:12;;;;;;;14.43;13.93;;;2.90;99.90;;;;;;5072099;28;20223;-61
2024/01/29 00:05:40;;;;;;;14.63;14.03;;;2.90;99.90;;;;;;5071502;28;20226;-60
2024/01/29 00:08:07;;;;;;;14.90;14.30;;;2.90;99.90;;;;;;5070876;28;20227;-62
2024/01/29 00:10:34;;;;;;;14.55;13.95;;;3.00;99.90;;;;;;5072384;28;20693;-60
2024/01/29 00:13:00;;;;;;;14.10;13.60;;;3.00;99.90;;;;;;5071891;28;20297;-62
2024/01/29 00:15:27;;;;;;;12.77;12.27;;;3.00;99.90;;;;;;5069701;28;20314;-61
2024/01/29 00:17:54;;;;;;;12.87;12.37;;;2.90;99.90;;;;;;5071973;28;20597;-61
2024/01/29 00:20:21;;;;;;;13.00;12.50;;;2.90;99.90;;;;;;5072131;28;20207;-61
2024/01/29 00:22:49;;;;;;;13.63;13.13;;;3.00;99.90;;;;;;5071084;28;20219;-61
2024/01/29 00:25:15;;;;;;;13.43;12.93;;;3.00;99.90;;;;;;5075970;28;20203;-61
2024/01/29 00:27:42;;;;;;;12.30;11.82;;;3.00;99.90;;;;;;5081268;28;20227;-60
2024/01/29 00:30:10;;;;;;;12.60;12.20;;;3.00;99.90;;;;;;5078615;28;20231;-60
2024/01/29 00:32:40;;;;;;;12.23;11.73;;;3.00;99.90;;;;;;5071082;28;20203;-61
2024/01/29 00:35:07;;;;;;;12.97;12.47;;;3.00;99.90;;;;;;5068402;28;20584;-62
2024/01/29 00:37:34;;;;;;;12.83;12.33;;;3.00;99.90;;;;;;5071129;28;20223;-61
2024/01/29 00:40:04;;;;;;;13.27;12.77;;;3.00;99.90;;;;;;5071611;28;20200;-62
2024/01/29 00:42:31;;;;;;;12.85;12.35;;;3.00;99.90;;;;;;5068865;28;20233;-61
2024/01/29 00:44:58;;;;;;;12.40;11.90;;;3.00;99.90;;;;;;5071172;28;20218;-61
2024/01/29 00:47:24;;;;;;;12.03;11.53;;;3.00;99.90;;;;;;5070341;28;20223;-60
2024/01/29 00:49:51;;;;;;;12.87;12.37;;;3.00;99.90;;;;;;5071047;28;20227;-61
2024/01/29 00:52:18;;;;;;;12.00;11.60;;;3.00;99.90;;;;;;5070504;28;20572;-61
2024/01/29 00:54:45;;;;;;;12.63;12.13;;;2.90;99.90;;;;;;5069203;28;20211;-61
2024/01/29 00:57:15;;;;;;;12.40;11.90;;;2.90;99.90;;;;;;5070515;28;20227;-62
2024/01/29 00:59:42;;;;;;;11.53;11.13;;;2.90;99.90;;;;;;5070847;28;20210;-61
2024/01/29 01:02:09;;;;;;;12.83;12.23;;;2.90;99.90;;;;;;5070166;28;20669;-60
2024/01/29 01:04:36;;;;;;;12.25;11.75;;;2.90;99.90;;;;;;5070858;28;20311;-61
2024/01/29 01:07:02;;;;;;;12.50;12.00;;;2.90;99.90;;;;;;5070494;28;20222;-62
2024/01/29 01:09:29;;;;;;;12.87;12.37;;;2.90;99.90;;;;;;5070336;28;20587;-61
2024/01/29 01:11:56;;;;;;;13.30;12.80;;;2.90;99.90;;;;;;5070017;28;20215;-61
2024/01/29 01:14:24;;;;;;;12.87;12.37;;;2.90;99.90;;;;;;5070541;28;20207;-60
2024/01/29 01:16:51;;;;;;;11.50;11.10;;;2.90;99.90;;;;;;5070557;28;20223;-60
2024/01/29 01:19:17;;;;;;;12.40;11.90;;;2.90;99.90;;;;;;5070900;28;20199;-62
2024/01/29 01:21:44;;;;;;;12.40;11.90;;;2.90;99.90;;;;;;5069751;28;20203;-61
2024/01/29 01:24:11;;;;;;;13.17;12.63;;;2.80;99.90;;;;;;5070957;28;20214;-61
2024/01/29 01:26:37;;;;;;;14.00;13.50;;;2.80;99.90;;;;;;5070558;28;20227;-61
2024/01/29 01:29:05;;;;;;;12.73;12.23;;;2.70;99.90;;;;;;5072876;28;20227;-62
2024/01/29 01:31:33;;;;;;;13.43;12.90;;;2.70;99.90;;;;;;5075837;28;20203;-61
2024/01/29 01:33:59;;;;;;;12.90;12.40;;;2.70;99.90;;;;;;5080537;28;20214;-62
2024/01/29 01:36:26;;;;;;;13.05;12.55;;;2.70;99.90;;;;;;5077481;28;20727;-61
2024/01/29 01:38:53;;;;;;;12.93;12.43;;;2.80;99.90;;;;;;5072308;28;20215;-61
2024/01/29 01:41:20;;;;;;;13.27;12.77;;;2.70;99.90;;;;;;5069558;28;20207;-62
2024/01/29 01:43:46;;;;;;;13.17;12.67;;;2.70;99.90;;;;;;5071365;28;20203;-60
2024/01/29 01:46:21;;;;;;;12.80;12.30;;;2.70;99.90;;;;;;5080031;28;20203;-61
2024/01/29 01:48:51;;;;;;;12.60;12.10;;;2.70;99.90;;;;;;5071090;28;20223;-60
2024/01/29 01:51:18;;;;;;;12.87;12.37;;;2.70;99.90;;;;;;5079952;28;20203;-62
2024/01/29 01:53:46;;;;;;;14.43;13.83;;;2.60;99.90;;;;;;5080164;28;20307;-62
2024/01/29 01:56:13;;;;;;;13.73;13.23;;;2.60;99.90;;;;;;5072761;28;20203;-62
2024/01/29 01:58:41;;;;;;;13.83;13.33;;;2.60;99.90;;;;;;5070814;28;20211;-62
2024/01/29 02:01:09;;;;;;;13.93;13.43;;;2.60;99.90;;;;;;5069777;28;20204;-60
2024/01/29 02:03:35;;;;;;;14.43;13.83;;;2.60;99.90;;;;;;5071672;28;20808;-61
2024/01/29 02:06:04;;;;;;;14.50;13.90;;;2.60;99.90;;;;;;5074280;28;20293;-62
2024/01/29 02:08:31;;;;;;;13.07;12.57;;;2.60;99.90;;;;;;5073705;28;20223;-61
2024/01/29 02:10:58;;;;;;;12.80;12.30;;;2.60;99.90;;;;;;5073572;28;20206;-61
2024/01/29 02:13:25;;;;;;;13.27;12.77;;;2.70;99.90;;;;;;5074421;28;20207;-62
2024/01/29 02:15:52;;;;;;;12.67;12.17;;;2.70;99.90;;;;;;5074791;28;20238;-61
2024/01/29 02:18:18;;;;;;;12.73;12.30;;;2.70;99.90;;;;;;5077018;28;20257;-61
2024/01/29 02:20:45;;;;;;;14.37;13.77;;;2.70;99.90;;;;;;5074773;28;20233;-61
2024/01/29 02:23:13;;;;;;;13.30;12.80;;;2.70;99.90;;;;;;5075322;28;20207;-60
2024/01/29 02:25:40;;;;;;;13.23;12.73;;;2.70;99.90;;;;;;5073800;28;20789;-61
2024/01/29 02:28:06;;;;;;;13.50;13.00;;;2.70;99.90;;;;;;5071545;28;20266;-61
2024/01/29 02:30:33;;;;;;;13.47;12.97;;;2.70;99.90;;;;;;5073116;28;20211;-62
2024/01/29 02:33:01;;;;;;;13.47;12.97;;;2.70;99.90;;;;;;5073755;28;20302;-61
2024/01/29 02:35:28;;;;;;;14.37;13.67;;;2.70;99.90;;;;;;5073403;28;20215;-60
2024/01/29 02:37:54;;;;;;;13.60;13.10;;;2.70;99.90;;;;;;5073536;28;20234;-61
2024/01/29 02:40:22;;;;;;;13.07;12.63;;;2.70;99.90;;;;;;5070947;28;20195;-60
2024/01/29 02:42:49;;;;;;;12.77;12.30;;;2.70;99.90;;;;;;5072907;28;20569;-61
2024/01/29 02:45:16;;;;;;;12.63;12.13;;;2.70;99.90;;;;;;5074961;28;20199;-60
2024/01/29 02:47:43;;;;;;;12.33;11.87;;;2.60;99.90;;;;;;5073414;28;20231;-62
2024/01/29 02:50:10;;;;;;;12.97;12.47;;;2.60;99.90;;;;;;5073347;28;20685;-60
2024/01/29 02:52:37;;;;;;;12.97;12.47;;;2.60;99.90;;;;;;5073046;28;20207;-61
2024/01/29 02:55:04;;;;;;;13.50;13.00;;;2.60;99.90;;;;;;5072778;28;20210;-62
2024/01/29 02:57:32;;;;;;;13.13;12.63;;;2.60;99.90;;;;;;5073272;28;20319;-62
2024/01/29 02:59:59;;;;;;;13.30;12.80;;;2.60;99.90;;;;;;5073818;28;20206;-63
2024/01/29 03:02:25;;;;;;;12.70;12.20;;;2.60;99.90;;;;;;5073337;28;20536;-61
2024/01/29 03:04:52;;;;;;;12.83;12.33;;;2.70;99.90;;;;;;5072235;28;20207;-61
2024/01/29 03:07:19;;;;;;;12.77;12.20;;;2.70;99.90;;;;;;5073270;28;20599;-61
2024/01/29 03:09:46;;;;;;;13.77;13.27;;;2.60;99.90;;;;;;5070222;28;20249;-61
2024/01/29 03:12:12;;;;;;;12.60;12.20;;;2.60;99.90;;;;;;5072401;28;20597;-62
2024/01/29 03:14:41;;;;;;;12.80;12.30;;;2.60;99.90;;;;;;5072571;28;20218;-60
2024/01/29 03:17:08;;;;;;;13.00;12.50;;;2.60;99.90;;;;;;5072508;28;20251;-60
2024/01/29 03:19:35;;;;;;;12.43;11.97;;;2.60;99.90;;;;;;5072915;28;20673;-61
2024/01/29 03:22:01;;;;;;;12.27;11.87;;;2.60;99.90;;;;;;5072276;28;20211;-62
2024/01/29 03:24:28;;;;;;;12.00;11.60;;;2.60;99.90;;;;;;5070333;28;20210;-62
2024/01/29 03:26:55;;;;;;;12.63;11.93;;;2.60;99.90;;;;;;5072043;28;20246;-62
2024/01/29 03:29:21;;;;;;;11.88;11.43;;;2.70;99.90;;;;;;5071152;28;20701;-60
2024/01/29 03:31:49;;;;;;;12.07;11.57;;;2.70;99.90;;;;;;5072041;28;20218;-62
2024/01/29 03:34:16;;;;;;;12.13;11.73;;;2.70;99.90;;;;;;5072318;28;20223;-61
2024/01/29 03:36:44;;;;;;;13.30;12.70;;;2.70;99.90;;;;;;5072264;28;20226;-61
2024/01/29 03:39:11;;;;;;;12.47;11.97;;;2.60;99.90;;;;;;5072583;28;20199;-62
2024/01/29 03:41:37;;;;;;;13.33;12.83;;;2.60;99.90;;;;;;5068817;28;20208;-62
2024/01/29 03:44:05;;;;;;;12.50;12.07;;;2.60;99.90;;;;;;5072579;28;20208;-62
2024/01/29 03:46:31;;;;;;;13.10;12.60;;;2.60;99.90;;;;;;5070333;28;20219;-61
2024/01/29 03:48:59;;;;;;;13.30;12.80;;;2.60;99.90;;;;;;5071842;28;20245;-61
2024/01/29 03:51:26;;;;;;;13.63;13.13;;;2.60;99.90;;;;;;5071674;28;20203;-60
2024/01/29 03:53:53;;;;;;;13.20;12.70;;;2.60;99.90;;;;;;5080320;28;20666;-62
2024/01/29 03:56:19;;;;;;;13.82;13.32;;;2.60;99.90;;;;;;5081611;28;20314;-61
2024/01/29 03:58:46;;;;;;;13.53;13.03;;;2.50;99.90;;;;;;5075518;28;20210;-65
2024/01/29 04:01:13;;;;;;;15.20;14.60;;;2.50;99.90;;;;;;5075434;28;20207;-60
2024/01/29 04:03:40;;;;;;;13.80;13.30;;;2.50;99.90;;;;;;5075023;28;20206;-62
2024/01/29 04:06:08;;;;;;;13.27;12.77;;;2.50;99.90;;;;;;5071714;28;20260;-60
2024/01/29 04:08:35;;;;;;;13.30;12.80;;;2.50;99.90;;;;;;5072170;28;20211;-61
2024/01/29 04:11:02;;;;;;;12.87;12.37;;;2.50;99.90;;;;;;5073205;28;20587;-61
2024/01/29 04:13:28;;;;;;;14.10;13.23;;;2.50;99.90;;;;;;5072078;28;20210;-61
2024/01/29 04:15:55;;;;;;;13.70;13.20;;;2.60;99.90;;;;;;5072412;28;20677;-61
2024/01/29 04:18:22;;;;;;;15.10;14.50;;;2.50;99.90;;;;;;5074268;28;20211;-61
2024/01/29 04:20:49;;;;;;;14.07;13.57;;;2.60;99.90;;;;;;5076146;28;20202;-61
2024/01/29 04:23:17;;;;;;;14.13;13.63;;;2.60;99.90;;;;;;5071377;28;20226;-61
2024/01/29 04:25:44;;;;;;;13.90;13.40;;;2.50;99.90;;;;;;5069883;28;20215;-62
2024/01/29 04:28:11;;;;;;;16.27;15.67;;;2.60;99.90;;;;;;5071335;28;20281;-62
2024/01/29 04:30:37;;;;;;;16.73;16.03;;;2.60;99.90;;;;;;5067525;28;20661;-61
2024/01/29 04:33:04;;;;;;;13.15;12.65;;;2.50;99.90;;;;;;5070517;28;20674;-61
2024/01/29 04:35:31;;;;;;;13.00;12.50;;;2.50;99.90;;;;;;5070721;28;20311;-62
2024/01/29 04:37:58;;;;;;;13.80;13.30;;;2.50;99.90;;;;;;5070656;28;20234;-60
2024/01/29 04:40:26;;;;;;;13.77;13.27;;;2.50;99.90;;;;;;5070050;28;20199;-61
2024/01/29 04:42:52;;;;;;;13.10;12.60;;;2.50;99.90;;;;;;5070487;28;20222;-62
2024/01/29 04:45:19;;;;;;;13.77;13.27;;;2.60;99.90;;;;;;5070707;28;20662;-61
2024/01/29 04:47:46;;;;;;;12.13;11.73;;;2.60;99.90;;;;;;5068468;28;20223;-61
2024/01/29 04:50:12;;;;;;;13.50;13.00;;;2.60;99.90;;;;;;5070018;28;20219;-60
2024/01/29 04:52:39;;;;;;;14.10;13.60;;;2.50;99.90;;;;;;5070078;28;20257;-61
2024/01/29 04:55:06;;;;;;;15.57;14.97;;;2.60;99.90;;;;;;5070905;28;20232;-61
2024/01/29 04:57:35;;;;;;;15.70;15.10;;;2.50;99.90;;;;;;5070360;28;20226;-62
2024/01/29 05:00:03;;;;;;;15.35;14.75;;;2.50;99.90;;;;;;5070292;28;20582;-60
2024/01/29 05:02:30;;;;;;;13.90;13.40;;;2.60;99.90;;;;;;5070031;28;20211;-60
2024/01/29 05:04:56;;;;;;;16.15;15.55;;;2.50;99.90;;;;;;5068917;28;20218;-61
2024/01/29 05:07:23;;;;;;;12.88;12.38;;;2.50;99.90;;;;;;5070572;28;20242;-61
2024/01/29 05:09:50;;;;;;;13.17;12.67;;;2.50;99.90;;;;;;5070049;28;20264;-62
2024/01/29 05:12:17;;;;;;;13.27;12.77;;;2.50;99.90;;;;;;5069961;28;20203;-62
2024/01/29 05:14:45;;;;;;;11.87;11.47;;;2.60;99.90;;;;;;5070125;28;20213;-61
2024/01/29 05:17:11;;;;;;;13.00;12.50;;;2.60;99.90;;;;;;5070210;28;20222;-62
2024/01/29 05:19:40;;;;;;;11.70;11.30;;;2.60;99.90;;;;;;5070229;28;20289;-62
2024/01/29 05:22:07;;;;;;;13.30;12.80;;;2.70;99.90;;;;;;5070231;28;20260;-61
2024/01/29 05:24:33;;;;;;;12.27;11.83;;;2.70;99.90;;;;;;5069167;28;20207;-61
2024/01/29 05:27:00;;;;;;;12.57;12.07;;;2.70;99.90;;;;;;5069883;28;20234;-61
2024/01/29 05:29:27;;;;;;;12.83;12.33;;;2.70;99.90;;;;;;5070397;28;20258;-61
2024/01/29 05:31:55;;;;;;;12.70;12.20;;;2.70;99.90;;;;;;5070210;28;20199;-61
2024/01/29 05:34:21;;;;;;;12.90;12.40;;;2.80;99.90;;;;;;5070738;28;20207;-62
2024/01/29 05:36:48;;;;;;;11.63;11.23;;;2.80;99.90;;;;;;5071078;28;20226;-60
2024/01/29 05:39:15;;;;;;;12.35;11.95;;;2.70;99.90;;;;;;5068976;28;20199;-61
2024/01/29 05:41:42;;;;;;;13.13;12.63;;;2.70;99.90;;;;;;5070961;28;20207;-60
2024/01/29 05:44:09;;;;;;;13.23;12.73;;;2.70;99.90;;;;;;5068989;28;20214;-61
2024/01/29 05:46:37;;;;;;;12.63;12.13;;;2.70;99.90;;;;;;5065536;28;20242;-61
2024/01/29 05:49:05;;;;;;;13.57;13.07;;;2.70;99.90;;;;;;5065466;28;20290;-60
2024/01/29 05:51:32;;;;;;;14.50;13.97;;;2.60;99.90;;;;;;5070034;28;20219;-61
2024/01/29 05:54:00;;;;;;;13.70;13.20;;;2.60;99.90;;;;;;5070260;28;20199;-61
2024/01/29 05:56:26;;;;;;;15.27;14.67;;;2.50;99.90;;;;;;5070070;28;20272;-62
2024/01/29 05:58:53;;;;;;;14.73;14.17;;;2.50;99.90;;;;;;5070814;28;20235;-63
2024/01/29 06:01:20;;;;;;;15.87;15.27;;;2.50;99.90;;;;;;5067091;28;20356;-62
2024/01/29 06:03:47;;;;;;;17.33;16.67;;;2.40;99.90;;;;;;5067807;28;20202;-61
2024/01/29 06:06:15;;;;;;;16.20;15.60;;;2.40;99.90;;;;;;5071394;28;20210;-62
2024/01/29 06:08:42;;;;;;;17.73;17.13;;;2.40;99.90;;;;;;5069145;28;20210;-61
2024/01/29 06:11:08;;;;;;;17.80;17.10;;;2.50;99.90;;;;;;5068364;28;20226;-61
2024/01/29 06:13:35;;;;;;;17.47;16.87;;;2.40;99.90;;;;;;5068801;28;20199;-61
2024/01/29 06:16:02;;;;;;;17.27;16.60;;;2.30;99.90;;;;;;5069701;28;20215;-61
2024/01/29 06:18:28;;;;;;;16.95;16.35;;;2.30;99.90;;;;;;5067137;28;20199;-62
2024/01/29 06:20:55;;;;;;;16.77;16.07;;;2.30;99.90;;;;;;5069504;28;20682;-61
2024/01/29 06:23:23;;;;;;;15.52;14.95;;;2.30;99.90;;;;;;5067466;28;20207;-61
2024/01/29 06:25:50;;;;;;;16.87;16.20;;;2.30;99.90;;;;;;5076179;28;20487;-60
2024/01/29 06:28:17;;;;;;;15.17;14.57;;;2.40;99.90;;;;;;5074057;28;20227;-60
2024/01/29 06:30:44;;;;;;;16.03;15.33;;;2.40;99.90;;;;;;5078285;28;20246;-62
2024/01/29 06:33:10;;;;;;;15.03;14.43;;;2.50;99.90;;;;;;5079562;28;20207;-64
2024/01/29 06:35:37;;;;;;;13.97;13.37;;;2.50;99.90;;;;;;5084495;28;20275;-64
2024/01/29 06:38:04;;;;;;;13.23;12.73;;;2.60;99.90;;;;;;5085059;28;20224;-66
2024/01/29 06:40:32;;;;;;;13.43;12.87;;;2.70;99.90;;;;;;5081490;28;20223;-64
2024/01/29 06:42:59;;;;;;;12.50;12.00;;;2.80;99.90;;;;;;5083473;28;20210;-65
2024/01/29 06:45:26;;;;;;;12.50;12.00;;;2.90;99.90;;;;;;5084361;28;20196;-64
2024/01/29 06:47:52;;;;;;;11.93;11.48;;;2.90;99.90;;;;;;5076960;28;20227;-65
2024/01/29 06:50:19;;;;;;;12.18;11.68;;;3.00;99.90;;;;;;5078483;28;20219;-65
2024/01/29 06:52:46;;;;;;;12.43;11.93;;;3.00;99.90;;;;;;5076467;28;20199;-64
2024/01/29 06:55:13;;;;;;;12.63;12.13;;;3.00;99.90;;;;;;5073129;28;20207;-64
2024/01/29 06:57:41;;;;;;;12.53;12.03;;;3.00;99.90;;;;;;5071648;28;20603;-64
2024/01/29 07:00:09;;;;;;;11.43;11.00;;;3.00;99.90;;;;;;5071206;28;20199;-64
2024/01/29 07:02:36;;;;;;;13.23;12.73;;;3.00;99.90;;;;;;5071738;28;20257;-65
2024/01/29 07:05:03;;;;;;;12.33;11.83;;;3.00;99.90;;;;;;5069867;28;20207;-67
2024/01/29 07:07:29;;;;;;;12.17;11.67;;;3.00;99.90;;;;;;5071657;28;20301;-64
2024/01/29 07:09:56;;;;;;;13.93;13.33;;;3.00;99.90;;;;;;5072382;28;20227;-64
2024/01/29 07:12:23;;;;;;;12.53;12.03;;;3.00;99.90;;;;;;5073501;28;20211;-64
2024/01/29 07:14:53;;;;;;;11.90;11.40;;;3.10;99.90;;;;;;5077675;28;20211;-64
2024/01/29 07:17:20;;;;;;;12.33;11.83;;;3.10;99.90;;;;;;5076336;28;20962;-65
2024/01/29 07:19:48;;;;;;;12.30;11.80;;;3.20;99.90;;;;;;5074803;28;20207;-65
2024/01/29 07:22:18;;;;;;;11.88;11.45;;;3.20;99.90;;;;;;5073535;28;20934;-65
2024/01/29 07:24:45;;;;;;;12.63;12.13;;;3.20;99.90;;;;;;5075345;28;20205;-63
2024/01/29 07:27:12;;;;;;;12.53;11.93;;;3.20;99.90;;;;;;5076442;28;20235;-64
2024/01/29 07:29:39;;;;;;;12.20;11.70;;;3.20;99.90;;;;;;5077045;28;20203;-65
2024/01/29 07:32:08;;;;;;;11.30;10.87;;;3.30;99.90;;;;;;5075000;28;20227;-65
2024/01/29 07:34:36;;;;;;;11.30;10.90;;;3.30;99.90;;;;;;5075262;28;20214;-65
2024/01/29 07:37:03;;;;;;;11.23;10.83;;;3.30;99.90;;;;;;5075506;28;20709;-64
2024/01/29 07:39:30;;;;;;;11.97;11.57;;;3.20;99.90;;;;;;5073828;28;20200;-64
2024/01/29 07:41:56;;;;;;;12.00;11.50;;;3.20;99.90;;;;;;5075712;28;20210;-66
2024/01/29 07:44:23;;;;;;;12.27;11.77;;;3.10;99.90;;;;;;5074634;28;20207;-64
2024/01/29 07:46:50;;;;;;;12.17;11.70;;;3.10;99.90;;;;;;5072098;28;20604;-64
2024/01/29 07:49:18;;;;;;;12.10;11.70;;;3.10;99.90;;;;;;5077761;28;20195;-66
2024/01/29 07:51:44;;;;;;;12.60;12.10;;;3.10;99.90;;;;;;5084793;28;20223;-65
2024/01/29 07:54:12;;;;;;;12.37;11.90;;;3.20;99.90;;;;;;5087725;28;20234;-65
2024/01/29 07:56:41;;;;;;;12.57;12.07;;;3.20;99.90;;;;;;5086799;28;20249;-64
2024/01/29 07:59:08;;;;;;;12.60;12.10;;;3.20;99.90;;;;;;5085903;28;20203;-66
2024/01/29 08:01:35;;;;;;;13.17;12.67;;;3.30;99.90;;;;;;5084699;28;20199;-65
2024/01/29 08:04:03;;;;;;;12.68;12.18;;;3.30;99.90;;;;;;5086345;28;20211;-65
2024/01/29 08:06:31;;;;;;;12.48;11.98;;;3.30;99.90;;;;;;5084110;28;20223;-65
2024/01/29 08:08:58;;;;;;;11.87;11.47;;;3.40;99.90;;;;;;5078381;28;20238;-64
2024/01/29 08:11:24;;;;;;;11.30;10.90;;;3.50;99.90;;;;;;5072595;28;20668;-65
2024/01/29 08:13:51;;;;;;;11.17;10.77;;;3.60;99.90;;;;;;5072832;28;20674;-65
2024/01/29 08:16:18;;;;;;;11.07;10.67;;;3.70;99.90;;;;;;5072380;28;20223;-64
2024/01/29 08:18:44;;;;;;;11.43;10.97;;;3.80;99.90;;;;;;5071986;28;20206;-64
2024/01/29 08:21:11;;;;;;;12.10;11.60;;;3.90;99.90;;;;;;5072963;28;20203;-66
2024/01/29 08:23:40;;;;;;;11.40;11.00;;;4.10;99.90;;;;;;5071923;28;20199;-65
2024/01/29 08:26:07;;;;;;;11.17;10.77;;;4.10;99.90;;;;;;5072219;28;20226;-65
2024/01/29 08:28:34;;;;;;;10.93;10.53;;;4.20;99.90;;;;;;5072522;28;20237;-66
2024/01/29 08:31:00;;;;;;;11.00;10.60;;;4.30;99.90;;;;;;5072182;28;20226;-64
2024/01/29 08:33:29;;;;;;;11.50;11.10;;;4.40;99.90;;;;;;5070501;28;20331;-64
2024/01/29 08:35:56;;;;;;;11.20;10.80;;;4.40;99.90;;;;;;5078053;28;20211;-65
2024/01/29 08:38:23;;;;;;;11.33;10.83;;;4.50;99.90;;;;;;5077362;28;20211;-65
2024/01/29 08:40:52;;;;;;;11.63;11.13;;;4.60;99.90;;;;;;5076181;28;20594;-64
2024/01/29 08:43:19;;;;;;;11.70;11.30;;;4.70;99.90;;;;;;5073887;28;20217;-64
2024/01/29 08:45:45;;;;;;;11.37;10.97;;;4.80;99.90;;;;;;5069128;28;20199;-65
2024/01/29 08:48:12;;;;;;;11.03;10.63;;;4.80;99.90;;;;;;5078503;28;20324;-64
2024/01/29 08:50:39;;;;;;;12.33;11.83;;;4.90;99.90;;;;;;5085577;28;20218;-64
2024/01/29 08:53:07;;;;;;;10.90;10.50;;;5.00;99.90;;;;;;5083372;28;20469;-64
2024/01/29 08:55:34;;;;;;;10.90;10.50;;;5.10;99.90;;;;;;5081302;28;20204;-64
2024/01/29 08:58:02;;;;;;;11.15;10.75;;;5.30;99.90;;;;;;5079142;28;20231;-64
2024/01/29 09:00:28;;;;;;;10.67;10.27;;;5.40;99.90;;;;;;5071260;28;20230;-64
2024/01/29 09:02:55;;;;;;;10.57;10.17;;;5.60;99.90;;;;;;5071779;28;20213;-64
2024/01/29 09:05:22;;;;;;;11.60;11.10;;;5.70;99.90;;;;;;5071493;28;20219;-66
2024/01/29 09:07:49;;;;;;;11.40;11.00;;;5.90;99.90;;;;;;5071360;28;20245;-65
2024/01/29 09:10:15;;;;;;;11.50;11.10;;;5.90;99.90;;;;;;5071411;28;20280;-66
2024/01/29 09:12:43;;;;;;;11.53;11.13;;;6.10;99.90;;;;;;5070700;28;20208;-65
2024/01/29 09:15:12;;;;;;;11.33;10.93;;;6.20;99.90;;;;;;5071402;28;20214;-66
2024/01/29 09:17:39;;;;;;;12.00;11.60;;;6.30;99.90;;;;;;5069131;28;20219;-65
2024/01/29 09:20:08;;;;;;;12.00;11.60;;;6.50;99.90;;;;;;5071245;28;20210;-66
2024/01/29 09:22:35;;;;;;;12.18;11.77;;;6.50;99.90;;;;;;5070715;28;20206;-65
2024/01/29 09:25:02;;;;;;;11.45;11.05;;;6.70;99.90;;;;;;5070823;28;20217;-64
2024/01/29 09:27:31;;;;;;;12.20;11.70;;;6.80;99.90;;;;;;5068270;28;20231;-64
2024/01/29 09:29:57;;;;;;;11.30;10.90;;;7.00;99.90;;;;;;5070749;28;20211;-63
2024/01/29 09:32:25;;;;;;;11.43;11.03;;;7.20;99.90;;;;;;5070517;28;20328;-65
2024/01/29 09:34:52;;;;;;;11.90;11.40;;;7.30;99.90;;;;;;5071286;28;20215;-66
2024/01/29 09:37:20;;;;;;;11.30;10.90;;;7.40;99.90;;;;;;5070835;28;20284;-65
2024/01/29 09:39:47;;;;;;;11.33;10.93;;;7.30;99.90;;;;;;5068116;28;20203;-65
2024/01/29 09:42:18;;;;;;;11.43;11.03;;;7.20;99.90;;;;;;5070789;28;20207;-64
2024/01/29 09:44:47;;;;;;;12.00;11.60;;;7.20;99.90;;;;;;5069101;28;20211;-65
2024/01/29 09:47:15;;;;;;;11.47;11.07;;;7.30;99.90;;;;;;5070301;28;20254;-66
2024/01/29 09:49:43;;;;;;;11.57;11.18;;;7.60;99.90;;;;;;5070478;28;20210;-64
2024/01/29 09:52:12;;;;;;;11.53;11.03;;;7.70;99.90;;;;;;5070093;28;20273;-66
2024/01/29 09:54:39;;;;;;;11.20;10.80;;;7.80;99.90;;;;;;5070538;28;20955;-65
2024/01/29 09:57:07;;;;;;;11.17;10.77;;;8.00;99.90;;;;;;5071004;28;20269;-65
2024/01/29 09:59:33;;;;;;;11.20;10.80;;;8.20;99.90;;;;;;5070788;28;20220;-65
2024/01/29 10:02:03;;;;;;;11.67;11.20;;;8.40;99.90;;;;;;5068665;28;20680;-66
2024/01/29 10:04:30;;;;;;;11.10;10.70;;;8.50;99.90;;;;;;5068732;28;20372;-64
2024/01/29 10:06:58;;;;;;;11.50;11.10;;;8.70;99.90;;;;;;5070861;28;20223;-64
2024/01/29 10:09:24;;;;;;;11.17;10.77;;;8.90;99.90;;;;;;5070327;28;20214;-64
2024/01/29 10:11:51;;;;;;;11.73;11.33;;;9.10;99.90;;;;;;5070365;28;20231;-65
2024/01/29 10:14:18;;;;;;;11.90;11.50;;;9.30;99.90;;;;;;5070806;28;20244;-64
2024/01/29 10:16:47;;;;;;;12.87;12.37;;;9.40;99.90;;;;;;5070098;28;20709;-65
2024/01/29 10:19:14;;;;;;;12.10;11.70;;;9.50;99.90;;;;;;5070751;28;20207;-65
2024/01/29 10:21:43;;;;;;;13.00;12.50;;;9.30;99.90;;;;;;5068989;28;20664;-65
2024/01/29 10:24:15;;;;;;;12.73;12.23;;;9.20;99.90;;;;;;5071717;28;20238;-66
2024/01/29 10:26:42;;;;;;;12.67;12.17;;;9.10;99.90;;;;;;5074440;28;20235;-64
2024/01/29 10:29:10;;;;;;;14.10;13.50;;;9.20;99.90;;;;;;5071674;28;20214;-65
2024/01/29 10:31:37;;;;;;;12.90;12.40;;;9.20;99.90;;;;;;5078522;28;20234;-65
2024/01/29 10:34:05;;;;;;;13.53;13.03;;;9.10;99.90;;;;;;5079224;28;20666;-63
2024/01/29 10:36:33;;;;;;;14.93;14.33;;;9.00;99.90;;;;;;5076015;28;20230;-65
2024/01/29 10:39:01;;;;;;;13.50;13.00;;;8.90;99.90;;;;;;5076107;28;20608;-65
2024/01/29 10:41:32;;;;;;;14.20;13.60;;;8.80;99.90;;;;;;5075357;28;20195;-65
2024/01/29 10:44:03;;;;;;;13.60;13.10;;;8.80;99.90;;;;;;5077084;28;20207;-66
2024/01/29 10:46:36;;;;;;;14.03;13.43;;;8.80;99.90;;;;;;5071073;28;20227;-65
2024/01/29 10:49:03;;;;;;;13.10;12.60;;;8.80;99.90;;;;;;5083326;28;20230;-66
2024/01/29 10:51:32;;;;;;;12.97;12.47;;;8.90;99.90;;;;;;5082868;28;20219;-66
2024/01/29 10:54:01;;;;;;;13.27;12.67;;;9.00;99.90;;;;;;5079664;28;20548;-66
2024/01/29 10:56:31;;;;;;;12.80;12.30;;;9.20;99.90;;;;;;5076049;28;20277;-65
2024/01/29 10:58:59;;;;;;;13.40;12.90;;;9.30;99.90;;;;;;5074345;28;20206;-65
2024/01/29 11:01:26;;;;;;;13.27;12.77;;;9.30;99.90;;;;;;5074319;28;20230;-65
2024/01/29 11:03:53;;;;;;;13.23;12.73;;;9.40;99.90;;;;;;5074313;28;20208;-64
2024/01/29 11:06:31;;;;;;;12.93;12.43;;;9.50;99.90;;;;;;5073975;28;20223;-64
2024/01/29 11:09:03;;;;;;;13.27;12.77;;;9.60;99.90;;;;;;5072950;28;20207;-65
2024/01/29 11:11:31;;;;;;;13.07;12.57;;;9.70;99.90;;;;;;5073236;28;20269;-64
2024/01/29 11:13:58;;;;;;;13.13;12.47;;;9.90;99.90;;;;;;5071807;28;20212;-64
2024/01/29 11:16:25;;;;;;;12.37;11.87;;;10.20;99.90;;;;;;5074768;28;20303;-65
2024/01/29 11:18:52;;;;;;;12.13;11.73;;;10.20;99.90;;;;;;5074333;28;20204;-65
2024/01/29 11:21:24;;;;;;;12.60;12.10;;;10.30;99.90;;;;;;5072578;28;20446;-65
2024/01/29 11:23:56;;;;;;;12.50;12.00;;;10.50;99.90;;;;;;5075223;28;20214;-65
2024/01/29 11:26:25;;;;;;;11.87;11.47;;;10.50;99.90;;;;;;5075104;28;20788;-65
2024/01/29 11:28:57;;;;;;;11.83;11.43;;;10.60;99.90;;;;;;5077398;28;20736;-64
2024/01/29 11:31:24;;;;;;;11.53;11.13;;;10.60;99.90;;;;;;5081518;28;20267;-64
2024/01/29 11:33:51;;;;;;;12.47;11.93;;;10.50;99.90;;;;;;5084053;28;20229;-64
2024/01/29 11:36:18;;;;;;;12.10;11.60;;;10.60;99.90;;;;;;5084114;28;20235;-65
2024/01/29 11:38:45;;;;;;;12.03;11.63;;;10.70;99.90;;;;;;5085112;28;20670;-64
2024/01/29 11:41:13;;;;;;;11.87;11.47;;;10.80;99.90;;;;;;5078831;28;20207;-65
2024/01/29 11:43:40;;;;;;;12.20;11.70;;;11.00;99.90;;;;;;5074465;28;20389;-66
2024/01/29 11:46:10;;;;;;;12.53;12.10;;;11.00;99.90;;;;;;5073654;28;20203;-64
2024/01/29 11:48:36;;;;;;;12.10;11.63;;;11.10;99.90;;;;;;5072483;28;20207;-64
2024/01/29 11:51:03;;;;;;;12.60;12.10;;;11.10;99.90;;;;;;5073453;28;20598;-64
2024/01/29 11:53:30;;;;;;;13.07;12.57;;;11.10;99.90;;;;;;5071105;28;20235;-66
2024/01/29 11:55:57;;;;;;;12.70;12.20;;;11.10;99.90;;;;;;5073271;28;20211;-65
2024/01/29 11:58:25;;;;;;;12.37;11.97;;;11.20;99.90;;;;;;5074066;28;20219;-64
2024/01/29 12:00:53;;;;;;;12.47;11.97;;;11.20;99.90;;;;;;5072849;28;20237;-65
2024/01/29 12:03:23;;;;;;;12.30;11.80;;;11.20;99.90;;;;;;5073286;28;20203;-66
2024/01/29 12:05:51;;;;;;;12.40;12.00;;;11.20;99.90;;;;;;5073202;28;20285;-65
2024/01/29 12:08:19;;;;;;;12.80;12.30;;;11.20;99.90;;;;;;5073490;28;20215;-65
2024/01/29 12:10:47;;;;;;;12.93;12.43;;;11.30;99.90;;;;;;5072374;28;20214;-65
2024/01/29 12:13:15;;;;;;;12.90;12.43;;;11.40;99.90;;;;;;5073255;28;20227;-65
2024/01/29 12:15:42;;;;;;;13.13;12.63;;;11.50;99.90;;;;;;5077070;28;20203;-65
2024/01/29 12:18:15;;;;;;;14.33;13.83;;;11.50;99.90;;;;;;5079332;28;20227;-65
2024/01/29 12:20:43;;;;;;;13.80;13.30;;;11.60;99.90;;;;;;5073415;28;20199;-65
2024/01/29 12:23:10;;;;;;;13.23;12.73;;;11.70;99.90;;;;;;5072667;28;20210;-64
2024/01/29 12:25:37;;;;;;;13.53;13.03;;;11.80;99.90;;;;;;5072806;28;20215;-65
2024/01/29 12:28:06;;;;;;;12.83;12.43;;;11.80;99.90;;;;;;5072733;28;20237;-65
2024/01/29 12:30:33;;;;;;;13.07;12.57;;;11.80;99.90;;;;;;5073303;28;20203;-64
2024/01/29 12:33:00;;;;;;;13.77;13.20;;;11.80;99.90;;;;;;5073076;28;20226;-64
2024/01/29 12:35:28;;;;;;;12.80;12.30;;;11.80;99.90;;;;;;5072358;28;20547;-65